sensor_id;sensor_type;location;lat;lon;timestamp;P1;durP1;ratioP1;P2;durP2;ratioP2
28028;SDS011;15345;59.364;18.016;2023-03-19T00:00:09;115.13;;;28.42;;
28028;SDS011;15345;59.364;18.016;2023-03-19T00:01:28;115.53;;;32.45;;
28028;SDS011;15345;59.364;18.016;2023-03-19T00:02:48;134.45;;;32.38;;
28028;SDS011;15345;59.364;18.016;2023-03-19T00:04:09;124.15;;;31.58;;
28028;SDS011;15345;59.364;18.016;2023-03-19T00:05:28;139.10;;;33.97;;
28028;SDS011;15345;59.364;18.016;2023-03-19T00:06:47;115.75;;;31.90;;
28028;SDS011;15345;59.364;18.016;2023-03-19T00:08:06;135.57;;;31.70;;
28028;SDS011;15345;59.364;18.016;2023-03-19T00:09:25;183.38;;;34.30;;
28028;SDS011;15345;59.364;18.016;2023-03-19T00:10:45;149.73;;;33.90;;
28028;SDS011;15345;59.364;18.016;2023-03-19T00:12:04;110.57;;;30.38;;
28028;SDS011;15345;59.364;18.016;2023-03-19T00:13:23;117.97;;;32.35;;
28028;SDS011;15345;59.364;18.016;2023-03-19T00:14:42;118.25;;;30.52;;
28028;SDS011;15345;59.364;18.016;2023-03-19T00:16:01;101.72;;;30.77;;
28028;SDS011;15345;59.364;18.016;2023-03-19T00:17:20;117.93;;;31.52;;
28028;SDS011;15345;59.364;18.016;2023-03-19T00:18:39;103.68;;;29.77;;
28028;SDS011;15345;59.364;18.016;2023-03-19T00:19:58;105.05;;;31.77;;
28028;SDS011;15345;59.364;18.016;2023-03-19T00:21:17;108.60;;;31.88;;
28028;SDS011;15345;59.364;18.016;2023-03-19T00:22:36;100.20;;;30.63;;
28028;SDS011;15345;59.364;18.016;2023-03-19T00:23:55;104.22;;;29.92;;
28028;SDS011;15345;59.364;18.016;2023-03-19T00:25:19;99.57;;;29.73;;
28028;SDS011;15345;59.364;18.016;2023-03-19T00:26:38;97.50;;;30.85;;
28028;SDS011;15345;59.364;18.016;2023-03-19T00:27:57;113.60;;;32.25;;
28028;SDS011;15345;59.364;18.016;2023-03-19T00:29:16;110.45;;;30.67;;
28028;SDS011;15345;59.364;18.016;2023-03-19T00:30:35;102.97;;;29.75;;
28028;SDS011;15345;59.364;18.016;2023-03-19T00:31:54;104.05;;;29.85;;
28028;SDS011;15345;59.364;18.016;2023-03-19T00:33:14;92.82;;;28.73;;
28028;SDS011;15345;59.364;18.016;2023-03-19T00:34:33;89.72;;;27.98;;
28028;SDS011;15345;59.364;18.016;2023-03-19T00:35:52;114.65;;;29.23;;
28028;SDS011;15345;59.364;18.016;2023-03-19T00:37:11;100.85;;;29.35;;
28028;SDS011;15345;59.364;18.016;2023-03-19T00:38:34;114.63;;;29.25;;
28028;SDS011;15345;59.364;18.016;2023-03-19T00:39:53;126.78;;;30.30;;
28028;SDS011;15345;59.364;18.016;2023-03-19T00:41:12;96.13;;;26.83;;
28028;SDS011;15345;59.364;18.016;2023-03-19T00:42:31;110.38;;;29.48;;
28028;SDS011;15345;59.364;18.016;2023-03-19T00:43:54;176.27;;;31.52;;
28028;SDS011;15345;59.364;18.016;2023-03-19T00:45:13;155.15;;;30.92;;
28028;SDS011;15345;59.364;18.016;2023-03-19T00:46:32;115.05;;;27.48;;
28028;SDS011;15345;59.364;18.016;2023-03-19T00:47:51;124.85;;;30.70;;
28028;SDS011;15345;59.364;18.016;2023-03-19T00:49:10;115.97;;;29.58;;
28028;SDS011;15345;59.364;18.016;2023-03-19T00:50:29;142.05;;;29.08;;
28028;SDS011;15345;59.364;18.016;2023-03-19T00:51:48;108.65;;;28.48;;
28028;SDS011;15345;59.364;18.016;2023-03-19T00:53:08;133.38;;;30.00;;
28028;SDS011;15345;59.364;18.016;2023-03-19T00:54:27;115.20;;;29.20;;
28028;SDS011;15345;59.364;18.016;2023-03-19T00:55:46;130.65;;;29.00;;
28028;SDS011;15345;59.364;18.016;2023-03-19T00:57:05;148.68;;;30.00;;
28028;SDS011;15345;59.364;18.016;2023-03-19T00:58:24;227.88;;;32.95;;
28028;SDS011;15345;59.364;18.016;2023-03-19T00:59:43;177.98;;;32.08;;
28028;SDS011;15345;59.364;18.016;2023-03-19T01:01:02;121.28;;;29.20;;
28028;SDS011;15345;59.364;18.016;2023-03-19T01:02:22;137.32;;;28.77;;
28028;SDS011;15345;59.364;18.016;2023-03-19T01:03:41;122.88;;;29.15;;
28028;SDS011;15345;59.364;18.016;2023-03-19T01:05:00;143.35;;;30.60;;
28028;SDS011;15345;59.364;18.016;2023-03-19T01:06:19;123.05;;;28.88;;
28028;SDS011;15345;59.364;18.016;2023-03-19T01:07:38;199.07;;;31.00;;
28028;SDS011;15345;59.364;18.016;2023-03-19T01:08:57;124.65;;;26.75;;
28028;SDS011;15345;59.364;18.016;2023-03-19T01:10:17;106.18;;;29.20;;
28028;SDS011;15345;59.364;18.016;2023-03-19T01:11:36;114.72;;;27.55;;
28028;SDS011;15345;59.364;18.016;2023-03-19T01:12:55;267.45;;;36.30;;
28028;SDS011;15345;59.364;18.016;2023-03-19T01:14:15;105.47;;;27.23;;
28028;SDS011;15345;59.364;18.016;2023-03-19T01:15:38;115.53;;;26.55;;
28028;SDS011;15345;59.364;18.016;2023-03-19T01:18:16;111.65;;;28.08;;
28028;SDS011;15345;59.364;18.016;2023-03-19T01:19:36;169.43;;;32.50;;
28028;SDS011;15345;59.364;18.016;2023-03-19T01:20:54;108.78;;;26.77;;
28028;SDS011;15345;59.364;18.016;2023-03-19T01:22:14;105.97;;;29.85;;
28028;SDS011;15345;59.364;18.016;2023-03-19T01:23:34;101.72;;;26.25;;
28028;SDS011;15345;59.364;18.016;2023-03-19T01:24:53;113.57;;;25.67;;
28028;SDS011;15345;59.364;18.016;2023-03-19T01:26:12;102.45;;;26.17;;
28028;SDS011;15345;59.364;18.016;2023-03-19T01:27:31;94.15;;;25.02;;
28028;SDS011;15345;59.364;18.016;2023-03-19T01:28:50;128.05;;;26.13;;
28028;SDS011;15345;59.364;18.016;2023-03-19T01:30:10;125.68;;;26.25;;
28028;SDS011;15345;59.364;18.016;2023-03-19T01:31:29;167.18;;;28.50;;
28028;SDS011;15345;59.364;18.016;2023-03-19T01:32:48;151.20;;;28.00;;
28028;SDS011;15345;59.364;18.016;2023-03-19T01:34:07;132.98;;;26.80;;
28028;SDS011;15345;59.364;18.016;2023-03-19T01:35:26;111.57;;;27.00;;
28028;SDS011;15345;59.364;18.016;2023-03-19T01:36:45;186.98;;;30.67;;
28028;SDS011;15345;59.364;18.016;2023-03-19T01:38:04;127.22;;;26.15;;
28028;SDS011;15345;59.364;18.016;2023-03-19T01:39:24;115.78;;;26.45;;
28028;SDS011;15345;59.364;18.016;2023-03-19T01:40:44;140.55;;;27.75;;
28028;SDS011;15345;59.364;18.016;2023-03-19T01:42:03;204.68;;;28.33;;
28028;SDS011;15345;59.364;18.016;2023-03-19T01:43:27;110.43;;;26.13;;
28028;SDS011;15345;59.364;18.016;2023-03-19T01:44:46;138.88;;;27.23;;
28028;SDS011;15345;59.364;18.016;2023-03-19T01:47:35;135.43;;;27.73;;
28028;SDS011;15345;59.364;18.016;2023-03-19T01:49:04;102.90;;;26.15;;
28028;SDS011;15345;59.364;18.016;2023-03-19T01:50:30;120.30;;;24.90;;
28028;SDS011;15345;59.364;18.016;2023-03-19T01:51:52;125.75;;;27.08;;
28028;SDS011;15345;59.364;18.016;2023-03-19T01:53:12;153.43;;;27.85;;
28028;SDS011;15345;59.364;18.016;2023-03-19T01:54:32;109.97;;;24.42;;
28028;SDS011;15345;59.364;18.016;2023-03-19T01:55:52;97.72;;;24.90;;
28028;SDS011;15345;59.364;18.016;2023-03-19T01:57:12;97.65;;;25.65;;
28028;SDS011;15345;59.364;18.016;2023-03-19T01:58:32;123.47;;;27.10;;
28028;SDS011;15345;59.364;18.016;2023-03-19T01:59:52;89.05;;;24.85;;
28028;SDS011;15345;59.364;18.016;2023-03-19T02:01:11;96.60;;;24.02;;
28028;SDS011;15345;59.364;18.016;2023-03-19T02:02:31;103.60;;;26.15;;
28028;SDS011;15345;59.364;18.016;2023-03-19T02:03:51;96.68;;;25.83;;
28028;SDS011;15345;59.364;18.016;2023-03-19T02:05:11;81.70;;;22.75;;
28028;SDS011;15345;59.364;18.016;2023-03-19T02:06:31;85.15;;;23.40;;
28028;SDS011;15345;59.364;18.016;2023-03-19T02:07:54;83.82;;;23.58;;
28028;SDS011;15345;59.364;18.016;2023-03-19T02:09:15;90.32;;;24.55;;
28028;SDS011;15345;59.364;18.016;2023-03-19T02:10:35;76.68;;;22.45;;
28028;SDS011;15345;59.364;18.016;2023-03-19T02:11:54;76.22;;;23.73;;
28028;SDS011;15345;59.364;18.016;2023-03-19T02:13:14;63.97;;;22.33;;
28028;SDS011;15345;59.364;18.016;2023-03-19T02:14:33;82.30;;;22.52;;
28028;SDS011;15345;59.364;18.016;2023-03-19T02:15:52;72.70;;;22.88;;
28028;SDS011;15345;59.364;18.016;2023-03-19T02:17:12;66.82;;;21.90;;
28028;SDS011;15345;59.364;18.016;2023-03-19T02:18:31;62.53;;;21.50;;
28028;SDS011;15345;59.364;18.016;2023-03-19T02:19:56;77.60;;;23.63;;
28028;SDS011;15345;59.364;18.016;2023-03-19T02:21:16;80.50;;;22.92;;
28028;SDS011;15345;59.364;18.016;2023-03-19T02:22:36;64.90;;;21.38;;
28028;SDS011;15345;59.364;18.016;2023-03-19T02:24:05;65.65;;;21.08;;
28028;SDS011;15345;59.364;18.016;2023-03-19T02:25:32;64.78;;;21.13;;
28028;SDS011;15345;59.364;18.016;2023-03-19T02:26:52;62.55;;;20.42;;
28028;SDS011;15345;59.364;18.016;2023-03-19T02:28:16;68.78;;;22.30;;
28028;SDS011;15345;59.364;18.016;2023-03-19T02:29:36;57.35;;;19.20;;
28028;SDS011;15345;59.364;18.016;2023-03-19T02:30:55;58.67;;;21.45;;
28028;SDS011;15345;59.364;18.016;2023-03-19T02:32:15;59.22;;;21.00;;
28028;SDS011;15345;59.364;18.016;2023-03-19T02:33:33;58.95;;;20.95;;
28028;SDS011;15345;59.364;18.016;2023-03-19T02:34:52;58.05;;;20.23;;
28028;SDS011;15345;59.364;18.016;2023-03-19T02:36:14;54.17;;;19.85;;
28028;SDS011;15345;59.364;18.016;2023-03-19T02:37:35;62.78;;;19.73;;
28028;SDS011;15345;59.364;18.016;2023-03-19T02:38:54;61.08;;;20.58;;
28028;SDS011;15345;59.364;18.016;2023-03-19T02:40:21;61.17;;;20.00;;
28028;SDS011;15345;59.364;18.016;2023-03-19T02:41:41;54.72;;;19.85;;
28028;SDS011;15345;59.364;18.016;2023-03-19T02:43:00;58.05;;;20.80;;
28028;SDS011;15345;59.364;18.016;2023-03-19T02:44:19;56.15;;;19.20;;
28028;SDS011;15345;59.364;18.016;2023-03-19T02:45:38;64.00;;;21.30;;
28028;SDS011;15345;59.364;18.016;2023-03-19T02:46:58;55.97;;;20.00;;
28028;SDS011;15345;59.364;18.016;2023-03-19T02:48:17;62.35;;;21.23;;
28028;SDS011;15345;59.364;18.016;2023-03-19T02:49:35;61.70;;;21.27;;
28028;SDS011;15345;59.364;18.016;2023-03-19T02:50:54;56.70;;;20.90;;
28028;SDS011;15345;59.364;18.016;2023-03-19T02:52:14;58.25;;;19.80;;
28028;SDS011;15345;59.364;18.016;2023-03-19T02:53:34;56.80;;;19.60;;
28028;SDS011;15345;59.364;18.016;2023-03-19T02:54:53;51.55;;;20.02;;
28028;SDS011;15345;59.364;18.016;2023-03-19T02:56:12;50.47;;;18.60;;
28028;SDS011;15345;59.364;18.016;2023-03-19T02:57:31;49.83;;;18.48;;
28028;SDS011;15345;59.364;18.016;2023-03-19T02:58:50;42.42;;;18.25;;
28028;SDS011;15345;59.364;18.016;2023-03-19T03:00:10;43.25;;;17.70;;
28028;SDS011;15345;59.364;18.016;2023-03-19T03:01:29;39.72;;;17.10;;
28028;SDS011;15345;59.364;18.016;2023-03-19T03:02:48;41.03;;;16.85;;
28028;SDS011;15345;59.364;18.016;2023-03-19T03:04:07;45.40;;;17.40;;
28028;SDS011;15345;59.364;18.016;2023-03-19T03:05:26;45.72;;;17.50;;
28028;SDS011;15345;59.364;18.016;2023-03-19T03:06:45;43.65;;;17.73;;
28028;SDS011;15345;59.364;18.016;2023-03-19T03:08:04;41.83;;;17.63;;
28028;SDS011;15345;59.364;18.016;2023-03-19T03:09:23;41.97;;;17.52;;
28028;SDS011;15345;59.364;18.016;2023-03-19T03:10:42;41.83;;;17.40;;
28028;SDS011;15345;59.364;18.016;2023-03-19T03:12:01;39.13;;;17.30;;
28028;SDS011;15345;59.364;18.016;2023-03-19T03:13:20;37.88;;;16.50;;
28028;SDS011;15345;59.364;18.016;2023-03-19T03:14:39;37.38;;;16.92;;
28028;SDS011;15345;59.364;18.016;2023-03-19T03:15:58;37.13;;;16.48;;
28028;SDS011;15345;59.364;18.016;2023-03-19T03:17:18;35.75;;;16.92;;
28028;SDS011;15345;59.364;18.016;2023-03-19T03:18:36;39.00;;;16.83;;
28028;SDS011;15345;59.364;18.016;2023-03-19T03:19:55;36.75;;;16.02;;
28028;SDS011;15345;59.364;18.016;2023-03-19T03:21:14;30.13;;;15.57;;
28028;SDS011;15345;59.364;18.016;2023-03-19T03:22:37;31.33;;;15.18;;
28028;SDS011;15345;59.364;18.016;2023-03-19T03:23:56;30.05;;;15.35;;
28028;SDS011;15345;59.364;18.016;2023-03-19T03:25:15;30.55;;;15.80;;
28028;SDS011;15345;59.364;18.016;2023-03-19T03:26:34;36.53;;;16.20;;
28028;SDS011;15345;59.364;18.016;2023-03-19T03:27:56;33.28;;;16.75;;
28028;SDS011;15345;59.364;18.016;2023-03-19T03:29:15;31.20;;;15.88;;
28028;SDS011;15345;59.364;18.016;2023-03-19T03:30:34;32.28;;;15.35;;
28028;SDS011;15345;59.364;18.016;2023-03-19T03:31:54;31.63;;;15.20;;
28028;SDS011;15345;59.364;18.016;2023-03-19T03:33:13;29.17;;;14.80;;
28028;SDS011;15345;59.364;18.016;2023-03-19T03:34:33;30.15;;;14.48;;
28028;SDS011;15345;59.364;18.016;2023-03-19T03:35:52;32.45;;;14.50;;
28028;SDS011;15345;59.364;18.016;2023-03-19T03:37:11;32.15;;;15.13;;
28028;SDS011;15345;59.364;18.016;2023-03-19T03:38:30;32.70;;;16.02;;
28028;SDS011;15345;59.364;18.016;2023-03-19T03:39:50;29.95;;;16.52;;
28028;SDS011;15345;59.364;18.016;2023-03-19T03:41:09;30.02;;;15.15;;
28028;SDS011;15345;59.364;18.016;2023-03-19T03:42:28;33.47;;;15.88;;
28028;SDS011;15345;59.364;18.016;2023-03-19T03:43:47;30.77;;;16.10;;
28028;SDS011;15345;59.364;18.016;2023-03-19T03:45:06;31.05;;;14.90;;
28028;SDS011;15345;59.364;18.016;2023-03-19T03:46:26;27.92;;;14.60;;
28028;SDS011;15345;59.364;18.016;2023-03-19T03:47:45;27.58;;;14.85;;
28028;SDS011;15345;59.364;18.016;2023-03-19T03:49:04;27.23;;;14.75;;
28028;SDS011;15345;59.364;18.016;2023-03-19T03:50:23;27.40;;;15.02;;
28028;SDS011;15345;59.364;18.016;2023-03-19T03:51:42;30.08;;;14.48;;
28028;SDS011;15345;59.364;18.016;2023-03-19T03:53:01;31.60;;;15.90;;
28028;SDS011;15345;59.364;18.016;2023-03-19T03:54:20;25.98;;;15.07;;
28028;SDS011;15345;59.364;18.016;2023-03-19T03:55:39;25.75;;;14.93;;
28028;SDS011;15345;59.364;18.016;2023-03-19T03:56:58;29.33;;;14.27;;
28028;SDS011;15345;59.364;18.016;2023-03-19T03:58:17;23.80;;;13.32;;
28028;SDS011;15345;59.364;18.016;2023-03-19T03:59:36;23.88;;;13.85;;
28028;SDS011;15345;59.364;18.016;2023-03-19T04:00:55;24.30;;;13.82;;
28028;SDS011;15345;59.364;18.016;2023-03-19T04:02:14;23.27;;;13.50;;
28028;SDS011;15345;59.364;18.016;2023-03-19T04:03:33;21.38;;;12.77;;
28028;SDS011;15345;59.364;18.016;2023-03-19T04:04:52;23.52;;;13.02;;
28028;SDS011;15345;59.364;18.016;2023-03-19T04:06:12;26.40;;;13.43;;
28028;SDS011;15345;59.364;18.016;2023-03-19T04:07:32;25.30;;;13.35;;
28028;SDS011;15345;59.364;18.016;2023-03-19T04:08:51;23.52;;;13.60;;
28028;SDS011;15345;59.364;18.016;2023-03-19T04:10:10;28.60;;;14.35;;
28028;SDS011;15345;59.364;18.016;2023-03-19T04:11:29;28.63;;;14.88;;
28028;SDS011;15345;59.364;18.016;2023-03-19T04:12:48;28.42;;;15.10;;
28028;SDS011;15345;59.364;18.016;2023-03-19T04:14:08;25.63;;;14.35;;
28028;SDS011;15345;59.364;18.016;2023-03-19T04:15:27;41.42;;;23.40;;
28028;SDS011;15345;59.364;18.016;2023-03-19T04:16:45;103.70;;;52.00;;
28028;SDS011;15345;59.364;18.016;2023-03-19T04:18:04;40.25;;;21.77;;
28028;SDS011;15345;59.364;18.016;2023-03-19T04:19:23;25.73;;;14.77;;
28028;SDS011;15345;59.364;18.016;2023-03-19T04:20:42;55.55;;;28.20;;
28028;SDS011;15345;59.364;18.016;2023-03-19T04:22:01;37.42;;;22.25;;
28028;SDS011;15345;59.364;18.016;2023-03-19T04:23:21;28.33;;;16.20;;
28028;SDS011;15345;59.364;18.016;2023-03-19T04:24:40;24.98;;;15.00;;
28028;SDS011;15345;59.364;18.016;2023-03-19T04:26:03;27.85;;;14.27;;
28028;SDS011;15345;59.364;18.016;2023-03-19T04:28:41;26.77;;;14.68;;
28028;SDS011;15345;59.364;18.016;2023-03-19T04:30:00;47.22;;;14.30;;
28028;SDS011;15345;59.364;18.016;2023-03-19T04:31:19;24.17;;;13.80;;
28028;SDS011;15345;59.364;18.016;2023-03-19T04:32:38;20.63;;;13.63;;
28028;SDS011;15345;59.364;18.016;2023-03-19T04:33:57;26.35;;;14.45;;
28028;SDS011;15345;59.364;18.016;2023-03-19T04:35:16;25.88;;;14.18;;
28028;SDS011;15345;59.364;18.016;2023-03-19T04:36:35;25.30;;;14.10;;
28028;SDS011;15345;59.364;18.016;2023-03-19T04:37:54;27.77;;;14.27;;
28028;SDS011;15345;59.364;18.016;2023-03-19T04:39:13;27.33;;;15.02;;
28028;SDS011;15345;59.364;18.016;2023-03-19T04:40:32;25.45;;;14.02;;
28028;SDS011;15345;59.364;18.016;2023-03-19T04:41:51;23.17;;;13.75;;
28028;SDS011;15345;59.364;18.016;2023-03-19T04:43:11;24.63;;;15.07;;
28028;SDS011;15345;59.364;18.016;2023-03-19T04:44:30;28.52;;;14.85;;
28028;SDS011;15345;59.364;18.016;2023-03-19T04:45:49;29.88;;;15.25;;
28028;SDS011;15345;59.364;18.016;2023-03-19T04:47:08;30.13;;;14.48;;
28028;SDS011;15345;59.364;18.016;2023-03-19T04:48:28;25.70;;;15.02;;
28028;SDS011;15345;59.364;18.016;2023-03-19T04:49:47;27.80;;;14.85;;
28028;SDS011;15345;59.364;18.016;2023-03-19T04:51:06;26.20;;;14.55;;
28028;SDS011;15345;59.364;18.016;2023-03-19T04:52:27;26.27;;;15.38;;
28028;SDS011;15345;59.364;18.016;2023-03-19T04:53:47;27.15;;;14.63;;
28028;SDS011;15345;59.364;18.016;2023-03-19T04:55:07;27.70;;;15.43;;
28028;SDS011;15345;59.364;18.016;2023-03-19T04:56:25;30.58;;;15.45;;
28028;SDS011;15345;59.364;18.016;2023-03-19T04:57:45;27.58;;;15.18;;
28028;SDS011;15345;59.364;18.016;2023-03-19T04:59:04;29.10;;;15.63;;
28028;SDS011;15345;59.364;18.016;2023-03-19T05:00:23;27.92;;;14.52;;
28028;SDS011;15345;59.364;18.016;2023-03-19T05:01:42;25.70;;;14.68;;
28028;SDS011;15345;59.364;18.016;2023-03-19T05:03:01;29.38;;;15.07;;
28028;SDS011;15345;59.364;18.016;2023-03-19T05:04:20;28.33;;;14.98;;
28028;SDS011;15345;59.364;18.016;2023-03-19T05:05:39;29.88;;;16.15;;
28028;SDS011;15345;59.364;18.016;2023-03-19T05:06:59;31.50;;;17.85;;
28028;SDS011;15345;59.364;18.016;2023-03-19T05:08:18;38.65;;;20.90;;
28028;SDS011;15345;59.364;18.016;2023-03-19T05:09:37;55.40;;;28.60;;
28028;SDS011;15345;59.364;18.016;2023-03-19T05:10:56;29.30;;;16.75;;
28028;SDS011;15345;59.364;18.016;2023-03-19T05:12:15;30.50;;;15.32;;
28028;SDS011;15345;59.364;18.016;2023-03-19T05:13:34;29.65;;;16.27;;
28028;SDS011;15345;59.364;18.016;2023-03-19T05:14:53;32.53;;;16.90;;
28028;SDS011;15345;59.364;18.016;2023-03-19T05:16:12;29.38;;;16.23;;
28028;SDS011;15345;59.364;18.016;2023-03-19T05:17:31;26.30;;;15.20;;
28028;SDS011;15345;59.364;18.016;2023-03-19T05:18:50;28.52;;;16.17;;
28028;SDS011;15345;59.364;18.016;2023-03-19T05:20:09;28.48;;;15.00;;
28028;SDS011;15345;59.364;18.016;2023-03-19T05:21:30;27.77;;;15.75;;
28028;SDS011;15345;59.364;18.016;2023-03-19T05:22:50;26.95;;;15.05;;
28028;SDS011;15345;59.364;18.016;2023-03-19T05:24:10;22.00;;;14.68;;
28028;SDS011;15345;59.364;18.016;2023-03-19T05:25:29;29.55;;;15.27;;
28028;SDS011;15345;59.364;18.016;2023-03-19T05:26:48;26.75;;;14.68;;
28028;SDS011;15345;59.364;18.016;2023-03-19T05:28:07;31.02;;;15.15;;
28028;SDS011;15345;59.364;18.016;2023-03-19T05:29:25;23.10;;;13.98;;
28028;SDS011;15345;59.364;18.016;2023-03-19T05:30:45;24.20;;;13.93;;
28028;SDS011;15345;59.364;18.016;2023-03-19T05:32:04;23.98;;;14.48;;
28028;SDS011;15345;59.364;18.016;2023-03-19T05:33:23;22.77;;;13.82;;
28028;SDS011;15345;59.364;18.016;2023-03-19T05:34:42;23.77;;;13.35;;
28028;SDS011;15345;59.364;18.016;2023-03-19T05:36:02;23.98;;;13.48;;
28028;SDS011;15345;59.364;18.016;2023-03-19T05:37:21;24.50;;;14.15;;
28028;SDS011;15345;59.364;18.016;2023-03-19T05:38:40;28.92;;;14.07;;
28028;SDS011;15345;59.364;18.016;2023-03-19T05:39:59;24.58;;;13.82;;
28028;SDS011;15345;59.364;18.016;2023-03-19T05:41:18;23.92;;;14.02;;
28028;SDS011;15345;59.364;18.016;2023-03-19T05:42:37;22.73;;;13.88;;
28028;SDS011;15345;59.364;18.016;2023-03-19T05:43:56;28.08;;;15.55;;
28028;SDS011;15345;59.364;18.016;2023-03-19T05:45:15;23.17;;;13.88;;
28028;SDS011;15345;59.364;18.016;2023-03-19T05:46:34;23.15;;;13.65;;
28028;SDS011;15345;59.364;18.016;2023-03-19T05:47:54;239.70;;;120.93;;
28028;SDS011;15345;59.364;18.016;2023-03-19T05:49:13;60.83;;;26.58;;
28028;SDS011;15345;59.364;18.016;2023-03-19T05:50:32;28.10;;;15.88;;
28028;SDS011;15345;59.364;18.016;2023-03-19T05:51:51;23.60;;;13.30;;
28028;SDS011;15345;59.364;18.016;2023-03-19T05:53:10;23.55;;;13.30;;
28028;SDS011;15345;59.364;18.016;2023-03-19T05:54:29;21.25;;;13.10;;
28028;SDS011;15345;59.364;18.016;2023-03-19T05:55:48;20.70;;;12.75;;
28028;SDS011;15345;59.364;18.016;2023-03-19T05:57:07;24.65;;;12.82;;
28028;SDS011;15345;59.364;18.016;2023-03-19T05:58:26;18.88;;;11.65;;
28028;SDS011;15345;59.364;18.016;2023-03-19T05:59:46;23.75;;;12.32;;
28028;SDS011;15345;59.364;18.016;2023-03-19T06:01:05;18.60;;;11.90;;
28028;SDS011;15345;59.364;18.016;2023-03-19T06:02:24;20.08;;;12.80;;
28028;SDS011;15345;59.364;18.016;2023-03-19T06:03:43;16.42;;;11.75;;
28028;SDS011;15345;59.364;18.016;2023-03-19T06:05:03;17.27;;;11.70;;
28028;SDS011;15345;59.364;18.016;2023-03-19T06:06:22;16.52;;;10.75;;
28028;SDS011;15345;59.364;18.016;2023-03-19T06:07:41;15.45;;;11.25;;
28028;SDS011;15345;59.364;18.016;2023-03-19T06:09:00;15.55;;;11.15;;
28028;SDS011;15345;59.364;18.016;2023-03-19T06:10:19;14.52;;;11.27;;
28028;SDS011;15345;59.364;18.016;2023-03-19T06:11:38;17.50;;;11.93;;
28028;SDS011;15345;59.364;18.016;2023-03-19T06:12:58;15.30;;;10.77;;
28028;SDS011;15345;59.364;18.016;2023-03-19T06:14:17;15.98;;;11.13;;
28028;SDS011;15345;59.364;18.016;2023-03-19T06:15:35;14.90;;;10.48;;
28028;SDS011;15345;59.364;18.016;2023-03-19T06:16:54;15.73;;;10.90;;
28028;SDS011;15345;59.364;18.016;2023-03-19T06:18:13;13.00;;;10.10;;
28028;SDS011;15345;59.364;18.016;2023-03-19T06:19:33;12.27;;;9.60;;
28028;SDS011;15345;59.364;18.016;2023-03-19T06:20:52;14.55;;;10.57;;
28028;SDS011;15345;59.364;18.016;2023-03-19T06:22:11;13.68;;;10.27;;
28028;SDS011;15345;59.364;18.016;2023-03-19T06:23:30;12.75;;;10.25;;
28028;SDS011;15345;59.364;18.016;2023-03-19T06:24:49;11.88;;;10.25;;
28028;SDS011;15345;59.364;18.016;2023-03-19T06:26:08;12.88;;;10.35;;
28028;SDS011;15345;59.364;18.016;2023-03-19T06:27:27;15.10;;;11.38;;
28028;SDS011;15345;59.364;18.016;2023-03-19T06:28:46;14.25;;;10.55;;
28028;SDS011;15345;59.364;18.016;2023-03-19T06:30:05;12.68;;;9.70;;
28028;SDS011;15345;59.364;18.016;2023-03-19T06:31:25;10.77;;;9.63;;
28028;SDS011;15345;59.364;18.016;2023-03-19T06:32:45;11.15;;;9.45;;
28028;SDS011;15345;59.364;18.016;2023-03-19T06:34:04;11.32;;;9.57;;
28028;SDS011;15345;59.364;18.016;2023-03-19T06:35:23;11.00;;;9.02;;
28028;SDS011;15345;59.364;18.016;2023-03-19T06:36:42;10.20;;;8.95;;
28028;SDS011;15345;59.364;18.016;2023-03-19T06:38:01;11.25;;;9.38;;
28028;SDS011;15345;59.364;18.016;2023-03-19T06:39:20;12.27;;;9.75;;
28028;SDS011;15345;59.364;18.016;2023-03-19T06:40:39;11.18;;;9.15;;
28028;SDS011;15345;59.364;18.016;2023-03-19T06:41:58;12.07;;;9.35;;
28028;SDS011;15345;59.364;18.016;2023-03-19T06:43:17;9.90;;;8.52;;
28028;SDS011;15345;59.364;18.016;2023-03-19T06:44:36;9.23;;;8.30;;
28028;SDS011;15345;59.364;18.016;2023-03-19T06:45:55;10.30;;;8.93;;
28028;SDS011;15345;59.364;18.016;2023-03-19T06:47:15;9.10;;;8.20;;
28028;SDS011;15345;59.364;18.016;2023-03-19T06:48:34;9.02;;;8.13;;
28028;SDS011;15345;59.364;18.016;2023-03-19T06:49:53;11.23;;;8.48;;
28028;SDS011;15345;59.364;18.016;2023-03-19T06:51:12;9.65;;;8.65;;
28028;SDS011;15345;59.364;18.016;2023-03-19T06:52:31;10.40;;;8.68;;
28028;SDS011;15345;59.364;18.016;2023-03-19T06:53:51;9.35;;;8.38;;
28028;SDS011;15345;59.364;18.016;2023-03-19T06:55:10;8.30;;;7.50;;
28028;SDS011;15345;59.364;18.016;2023-03-19T06:56:30;8.10;;;7.40;;
28028;SDS011;15345;59.364;18.016;2023-03-19T06:57:49;8.35;;;7.55;;
28028;SDS011;15345;59.364;18.016;2023-03-19T06:59:09;8.82;;;7.78;;
28028;SDS011;15345;59.364;18.016;2023-03-19T07:00:30;8.82;;;7.93;;
28028;SDS011;15345;59.364;18.016;2023-03-19T07:01:50;8.93;;;7.97;;
28028;SDS011;15345;59.364;18.016;2023-03-19T07:03:10;11.70;;;9.57;;
28028;SDS011;15345;59.364;18.016;2023-03-19T07:04:29;11.00;;;9.52;;
28028;SDS011;15345;59.364;18.016;2023-03-19T07:05:49;15.52;;;11.80;;
28028;SDS011;15345;59.364;18.016;2023-03-19T07:07:08;18.95;;;13.43;;
28028;SDS011;15345;59.364;18.016;2023-03-19T07:08:27;11.35;;;9.52;;
28028;SDS011;15345;59.364;18.016;2023-03-19T07:09:47;10.55;;;9.20;;
28028;SDS011;15345;59.364;18.016;2023-03-19T07:11:06;9.77;;;8.73;;
28028;SDS011;15345;59.364;18.016;2023-03-19T07:12:25;9.50;;;8.60;;
28028;SDS011;15345;59.364;18.016;2023-03-19T07:13:47;12.20;;;9.85;;
28028;SDS011;15345;59.364;18.016;2023-03-19T07:15:06;10.18;;;8.88;;
28028;SDS011;15345;59.364;18.016;2023-03-19T07:16:26;9.70;;;8.73;;
28028;SDS011;15345;59.364;18.016;2023-03-19T07:17:45;9.80;;;8.77;;
28028;SDS011;15345;59.364;18.016;2023-03-19T07:19:04;10.48;;;9.32;;
28028;SDS011;15345;59.364;18.016;2023-03-19T07:20:23;10.40;;;8.82;;
28028;SDS011;15345;59.364;18.016;2023-03-19T07:21:41;10.35;;;9.35;;
28028;SDS011;15345;59.364;18.016;2023-03-19T07:23:00;10.43;;;9.30;;
28028;SDS011;15345;59.364;18.016;2023-03-19T07:24:19;9.98;;;8.95;;
28028;SDS011;15345;59.364;18.016;2023-03-19T07:25:38;9.95;;;8.95;;
28028;SDS011;15345;59.364;18.016;2023-03-19T07:26:57;12.27;;;9.57;;
28028;SDS011;15345;59.364;18.016;2023-03-19T07:28:16;10.30;;;9.20;;
28028;SDS011;15345;59.364;18.016;2023-03-19T07:29:35;10.35;;;9.25;;
28028;SDS011;15345;59.364;18.016;2023-03-19T07:30:54;9.43;;;8.55;;
28028;SDS011;15345;59.364;18.016;2023-03-19T07:32:13;11.77;;;9.65;;
28028;SDS011;15345;59.364;18.016;2023-03-19T07:33:33;11.68;;;9.18;;
28028;SDS011;15345;59.364;18.016;2023-03-19T07:34:52;10.43;;;9.32;;
28028;SDS011;15345;59.364;18.016;2023-03-19T07:36:11;11.32;;;9.63;;
28028;SDS011;15345;59.364;18.016;2023-03-19T07:37:30;14.02;;;10.00;;
28028;SDS011;15345;59.364;18.016;2023-03-19T07:38:50;11.15;;;9.60;;
28028;SDS011;15345;59.364;18.016;2023-03-19T07:40:09;10.10;;;9.10;;
28028;SDS011;15345;59.364;18.016;2023-03-19T07:41:28;10.55;;;9.43;;